Time;durP1;ratioP1;P1;durP2;ratioP2;P2;SDS_P1;SDS_P2;PMS_P1;PMS_P2;Temp;Humidity;BMP_temperature;BMP_pressure;BME280_temperature;BME280_humidity;BME280_pressure;Samples;Min_cycle;Max_cycle;Signal;HPM_P1;HPM_P2
2022/07/22 00:01:42;;;;;;;6.15;2.70;;;;;;;17.51;78.60;102111.78;4992559;28;20030;-85
2022/07/22 00:04:07;;;;;;;7.50;2.70;;;;;;;17.46;78.15;102101.94;4992431;28;20054;-85
2022/07/22 00:06:33;;;;;;;7.30;2.80;;;;;;;17.50;77.93;102101.97;4992346;28;20030;-85
2022/07/22 00:08:58;;;;;;;7.63;2.85;;;;;;;17.46;78.11;102096.59;4993654;28;20057;-85
2022/07/22 00:11:24;;;;;;;9.65;3.00;;;;;;;17.41;78.20;102088.56;4993537;28;20406;-86
2022/07/22 00:13:49;;;;;;;11.63;3.28;;;;;;;17.48;78.25;102098.41;4993394;28;20018;-85
2022/07/22 00:16:15;;;;;;;8.68;2.70;;;;;;;17.55;78.39;102099.28;4993280;28;20038;-85
2022/07/22 00:18:40;;;;;;;8.63;3.05;;;;;;;17.55;78.38;102101.06;4993818;28;20113;-85
2022/07/22 00:21:06;;;;;;;7.18;3.42;;;;;;;17.48;78.65;102093.06;4993746;28;20034;-85
2022/07/22 00:23:31;;;;;;;10.10;3.50;;;;;;;17.51;78.75;102097.50;4993414;28;20069;-85
2022/07/22 00:25:57;;;;;;;10.68;3.63;;;;;;;17.48;78.94;102094.84;4993618;28;20029;-85
2022/07/22 00:28:22;;;;;;;9.88;3.70;;;;;;;17.42;78.97;102093.03;4993645;28;20124;-85
2022/07/22 00:30:48;;;;;;;10.10;3.60;;;;;;;17.36;79.18;102087.69;4993784;28;20030;-85
2022/07/22 00:33:13;;;;;;;11.63;3.90;;;;;;;17.38;79.21;102082.31;4996983;28;20030;-85
2022/07/22 00:35:38;;;;;;;11.48;4.28;;;;;;;17.43;79.01;102091.25;4996998;28;20442;-85
2022/07/22 00:38:04;;;;;;;8.27;3.85;;;;;;;17.47;79.08;102095.69;4996816;28;20510;-85
2022/07/22 00:40:29;;;;;;;10.18;3.75;;;;;;;17.43;79.29;102101.94;4995814;28;20034;-85
2022/07/22 00:42:54;;;;;;;12.10;4.07;;;;;;;17.48;79.08;102094.84;4979071;28;20030;-91
2022/07/22 00:45:20;;;;;;;9.75;4.43;;;;;;;17.36;79.08;102077.00;4995324;28;20121;-85
2022/07/22 00:47:45;;;;;;;11.77;4.22;;;;;;;17.46;79.50;102096.59;4995860;28;20073;-85
2022/07/22 00:50:11;;;;;;;10.40;3.75;;;;;;;17.39;79.19;102078.78;4996813;28;20034;-85
2022/07/22 00:52:37;;;;;;;9.90;4.28;;;;;;;17.35;79.54;102079.69;4996611;28;20038;-85
2022/07/22 00:55:05;;;;;;;8.32;3.92;;;;;;;17.40;79.68;102089.47;4996452;28;20474;-84
2022/07/22 00:57:30;;;;;;;8.75;4.07;;;;;;;17.52;79.70;102093.97;4998120;28;20030;-85
2022/07/22 00:59:56;;;;;;;8.25;3.80;;;;;;;17.55;79.29;102096.63;4999519;28;20529;-83
2022/07/22 01:02:21;;;;;;;9.00;3.85;;;;;;;17.56;79.23;102082.38;4999288;28;20041;-85
2022/07/22 01:04:47;;;;;;;12.73;3.67;;;;;;;17.61;78.83;102087.75;4999367;28;20395;-85
2022/07/22 01:07:12;;;;;;;10.68;3.83;;;;;;;17.59;78.61;102081.47;4998774;28;20030;-85
2022/07/22 01:09:43;;;;;;;11.13;4.38;;;;;;;17.47;79.08;102069.91;4996502;28;20038;-85
2022/07/22 01:12:08;;;;;;;10.88;3.90;;;;;;;17.53;78.88;102077.03;4996459;28;20030;-85
2022/07/22 01:14:33;;;;;;;12.80;4.05;;;;;;;17.53;79.14;102069.91;4994859;28;20035;-85
2022/07/22 01:16:59;;;;;;;12.85;4.10;;;;;;;17.59;79.06;102071.69;4996284;28;20030;-87
2022/07/22 01:19:24;;;;;;;11.98;4.40;;;;;;;17.58;78.90;102074.38;4994904;28;20062;-85
2022/07/22 01:21:49;;;;;;;12.02;3.72;;;;;;;17.53;78.82;102075.25;4996322;28;20413;-85
2022/07/22 01:24:15;;;;;;;12.65;4.20;;;;;;;17.57;78.59;102076.16;4994721;28;20038;-85
2022/07/22 01:26:40;;;;;;;8.95;3.67;;;;;;;17.56;78.39;102076.13;4994798;28;20140;-86
2022/07/22 01:29:07;;;;;;;15.38;3.83;;;;;;;17.49;78.31;102073.44;4995930;28;20451;-85
2022/07/22 01:31:32;;;;;;;11.32;3.88;;;;;;;17.36;78.49;102058.28;4995803;28;20110;-85
2022/07/22 01:33:58;;;;;;;9.35;3.65;;;;;;;17.46;78.46;102061.88;4995999;28;20113;-85
2022/07/22 01:36:23;;;;;;;11.85;4.07;;;;;;;17.45;78.46;102077.00;4995818;28;20085;-85
2022/07/22 01:38:49;;;;;;;9.70;3.70;;;;;;;17.42;78.37;102073.44;4995949;28;20077;-85
2022/07/22 01:41:14;;;;;;;11.65;3.60;;;;;;;17.37;78.27;102065.41;4995521;28;20038;-86
2022/07/22 01:43:40;;;;;;;11.93;3.80;;;;;;;17.32;78.25;102052.94;4994563;28;20487;-85
2022/07/22 01:46:05;;;;;;;9.43;3.85;;;;;;;17.36;78.16;102068.09;4995367;28;20030;-85
2022/07/22 01:48:31;;;;;;;10.38;3.60;;;;;;;17.15;78.43;102039.53;4995857;28;20061;-86
2022/07/22 01:50:57;;;;;;;15.55;4.07;;;;;;;17.31;78.57;102062.75;4995720;28;20030;-85
2022/07/22 01:53:22;;;;;;;11.27;3.88;;;;;;;17.36;78.30;102077.00;4995603;28;20022;-85
2022/07/22 01:55:48;;;;;;;12.50;3.67;;;;;;;17.27;78.58;102069.84;4995602;28;20033;-86
2022/07/22 01:58:14;;;;;;;16.15;4.18;;;;;;;17.25;78.82;102076.06;4995437;28;20530;-85
2022/07/22 02:00:39;;;;;;;9.07;3.75;;;;;;;17.18;78.86;102066.25;4995494;28;20032;-85
2022/07/22 02:03:06;;;;;;;14.60;4.07;;;;;;;17.19;78.97;102076.94;4995219;28;20026;-86
2022/07/22 02:05:32;;;;;;;10.05;4.18;;;;;;;17.17;79.78;102075.13;4995486;28;20248;-85
2022/07/22 02:08:06;;;;;;;10.85;3.95;;;;;;;17.16;79.36;102068.91;4995670;28;20049;-84
2022/07/22 02:10:32;;;;;;;10.15;3.75;;;;;;;17.14;79.06;102076.03;4994922;28;20033;-85
2022/07/22 02:12:57;;;;;;;9.38;4.10;;;;;;;17.10;79.70;102071.56;4993832;28;20031;-85
2022/07/22 02:15:23;;;;;;;9.50;4.25;;;;;;;17.11;79.95;102073.34;4993621;28;20497;-85
2022/07/22 02:17:49;;;;;;;13.32;4.63;;;;;;;17.10;79.76;102063.56;4995187;28;20481;-85
2022/07/22 02:20:15;;;;;;;10.93;4.57;;;;;;;17.16;79.56;102071.59;4994791;28;20113;-85
2022/07/22 02:22:40;;;;;;;9.75;4.38;;;;;;;17.14;79.33;102068.03;4995105;28;20467;-85
2022/07/22 02:25:06;;;;;;;12.05;4.40;;;;;;;17.17;79.72;102064.47;4993711;28;20050;-86
2022/07/22 02:27:31;;;;;;;10.45;4.47;;;;;;;17.21;79.56;102075.16;4994743;28;20466;-85
2022/07/22 02:29:57;;;;;;;12.60;4.82;;;;;;;17.21;79.85;102058.25;4994958;28;20058;-86
2022/07/22 02:32:22;;;;;;;12.25;4.78;;;;;;;17.26;79.72;102067.19;4994833;28;20026;-85
2022/07/22 02:34:47;;;;;;;14.40;4.72;;;;;;;17.26;79.44;102070.75;4994710;28;20034;-86
2022/07/22 02:37:13;;;;;;;9.70;4.68;;;;;;;17.24;79.52;102053.81;4993352;28;20027;-86
2022/07/22 02:39:38;;;;;;;13.27;4.88;;;;;;;17.27;79.43;102061.84;4993457;28;20352;-86
2022/07/22 02:42:03;;;;;;;10.60;4.63;;;;;;;17.21;79.64;102061.78;4994521;28;20030;-86
2022/07/22 02:44:29;;;;;;;15.23;5.10;;;;;;;17.20;79.85;102062.69;4994754;28;20498;-86
2022/07/22 02:46:54;;;;;;;14.77;4.30;;;;;;;17.15;79.71;102051.09;4994179;28;20038;-85
2022/07/22 02:49:20;;;;;;;14.73;4.75;;;;;;;17.23;79.74;102057.38;4994467;28;20112;-86
2022/07/22 02:51:45;;;;;;;13.10;4.45;;;;;;;17.18;79.69;102051.13;4994448;28;20032;-85
2022/07/22 02:54:10;;;;;;;14.32;4.82;;;;;;;17.24;79.71;102061.81;4993992;28;20481;-86
2022/07/22 02:56:36;;;;;;;18.63;5.13;;;;;;;17.23;79.97;102057.38;4994377;28;20109;-85
2022/07/22 02:59:01;;;;;;;12.02;4.82;;;;;;;17.28;79.84;102063.59;4994477;28;20512;-85
2022/07/22 03:01:27;;;;;;;16.35;5.10;;;;;;;17.37;79.42;102054.72;4994469;28;20023;-85
2022/07/22 03:03:52;;;;;;;14.80;4.95;;;;;;;17.39;79.61;102060.97;4993368;28;20034;-85
2022/07/22 03:06:18;;;;;;;14.57;5.13;;;;;;;17.28;79.74;102052.91;4994435;28;20406;-85
2022/07/22 03:08:43;;;;;;;8.27;4.80;;;;;;;17.23;79.79;102049.34;4994429;28;20034;-85
2022/07/22 03:11:08;;;;;;;13.52;5.05;;;;;;;17.35;79.85;102055.63;4994332;28;20019;-88
2022/07/22 03:13:34;;;;;;;11.23;4.80;;;;;;;17.36;80.07;102052.06;4993997;28;20034;-85
2022/07/22 03:15:59;;;;;;;13.43;4.90;;;;;;;17.33;79.68;102042.25;4994337;28;20451;-85
2022/07/22 03:18:25;;;;;;;11.75;4.72;;;;;;;17.40;79.58;102049.41;4994349;28;20478;-85
2022/07/22 03:20:50;;;;;;;11.25;4.75;;;;;;;17.38;79.75;102047.59;4994257;28;20030;-85
2022/07/22 03:23:15;;;;;;;12.70;4.85;;;;;;;17.28;80.15;102052.91;4993959;28;20030;-85
2022/07/22 03:25:41;;;;;;;11.48;4.90;;;;;;;17.21;80.27;102053.78;4993969;28;20030;-85
2022/07/22 03:28:07;;;;;;;11.65;4.38;;;;;;;17.14;80.04;102037.75;4992886;28;20026;-85
2022/07/22 03:30:33;;;;;;;13.05;5.55;;;;;;;17.19;80.54;102052.91;4993734;28;20073;-85
2022/07/22 03:32:58;;;;;;;11.30;4.55;;;;;;;17.07;80.60;102038.63;4993849;28;20034;-85
2022/07/22 03:35:24;;;;;;;18.13;5.00;;;;;;;17.16;80.70;102046.66;4992511;28;20156;-85
2022/07/22 03:37:49;;;;;;;10.77;4.65;;;;;;;17.14;80.74;102046.66;4994141;28;20026;-85
2022/07/22 03:40:15;;;;;;;11.75;4.57;;;;;;;17.17;80.52;102037.75;4993989;28;20469;-85
2022/07/22 03:42:41;;;;;;;13.63;4.25;;;;;;;17.17;80.39;102046.69;4993082;28;20529;-85
2022/07/22 03:45:07;;;;;;;11.55;4.65;;;;;;;17.11;80.62;102038.63;4993267;28;20054;-85
2022/07/22 03:47:32;;;;;;;13.85;4.90;;;;;;;17.15;81.04;102048.44;4993646;28;20062;-84
2022/07/22 03:49:58;;;;;;;13.43;4.60;;;;;;;17.08;81.20;102041.28;4992384;28;20027;-85
2022/07/22 03:52:24;;;;;;;16.25;4.88;;;;;;;17.09;81.14;102045.75;4993678;28;20037;-85
2022/07/22 03:54:50;;;;;;;13.75;4.68;;;;;;;17.11;80.92;102053.78;4992231;28;20026;-85
2022/07/22 03:57:15;;;;;;;12.18;4.60;;;;;;;17.11;80.69;102049.31;4993411;28;20027;-85
2022/07/22 03:59:41;;;;;;;11.90;4.25;;;;;;;17.14;80.61;102046.66;4993100;28;20061;-85
2022/07/22 04:02:06;;;;;;;15.50;5.10;;;;;;;17.22;80.68;102060.03;4992963;28;20482;-85
2022/07/22 04:04:32;;;;;;;12.23;4.72;;;;;;;17.20;80.93;102051.13;4993315;28;20054;-85
2022/07/22 04:06:57;;;;;;;14.30;4.60;;;;;;;17.28;80.63;102062.72;4993926;28;20034;-85
2022/07/22 04:09:22;;;;;;;11.88;4.85;;;;;;;17.25;80.56;102054.69;4996603;28;20027;-85
2022/07/22 04:11:50;;;;;;;16.65;4.90;;;;;;;17.27;80.58;102064.50;4996933;28;20031;-86
2022/07/22 04:14:16;;;;;;;17.27;5.10;;;;;;;17.21;80.66;102051.13;4996783;28;20026;-85
2022/07/22 04:16:43;;;;;;;12.38;5.07;;;;;;;17.23;80.73;102051.13;4996478;28;20041;-85
2022/07/22 04:19:09;;;;;;;10.13;4.65;;;;;;;17.28;80.44;102052.03;4996756;28;20030;-85
2022/07/22 04:21:35;;;;;;;13.82;4.90;;;;;;;17.30;80.58;102054.69;4997153;28;20105;-85
2022/07/22 04:24:00;;;;;;;15.77;4.97;;;;;;;17.27;80.05;102059.16;4995522;28;20114;-85
2022/07/22 04:26:25;;;;;;;13.05;5.18;;;;;;;17.38;80.01;102059.16;4996453;28;20030;-86
2022/07/22 04:28:51;;;;;;;14.30;5.35;;;;;;;17.44;80.22;102066.31;4995143;28;20498;-85
2022/07/22 04:31:16;;;;;;;11.10;5.15;;;;;;;17.41;80.01;102051.16;4996633;28;20431;-88
2022/07/22 04:33:41;;;;;;;12.93;5.30;;;;;;;17.28;79.87;102030.66;4996477;28;20030;-85
2022/07/22 04:36:07;;;;;;;12.45;5.72;;;;;;;17.42;79.87;102054.72;4996274;28;20076;-85
2022/07/22 04:38:32;;;;;;;9.68;5.15;;;;;;;17.43;79.74;102056.50;4996387;28;20026;-85
2022/07/22 04:40:58;;;;;;;13.10;6.00;;;;;;;17.42;79.90;102041.38;4995698;28;20459;-85
2022/07/22 04:43:23;;;;;;;12.05;5.53;;;;;;;17.44;80.15;102048.50;4996321;28;20370;-85
2022/07/22 04:45:49;;;;;;;14.40;5.93;;;;;;;17.43;80.04;102048.50;4995996;28;20022;-86
2022/07/22 04:48:15;;;;;;;11.43;5.68;;;;;;;17.45;80.35;102046.72;4996118;28;20370;-85
2022/07/22 04:50:40;;;;;;;15.10;6.43;;;;;;;17.49;80.31;102044.06;4996056;28;20037;-85
2022/07/22 04:53:05;;;;;;;15.52;6.07;;;;;;;17.44;80.45;102043.16;4994696;28;20030;-85
2022/07/22 04:55:31;;;;;;;12.15;6.10;;;;;;;17.48;80.44;102055.66;4978279;28;20133;-86
2022/07/22 04:57:56;;;;;;;14.50;5.93;;;;;;;17.48;80.38;102046.75;4996246;28;20023;-86
2022/07/22 05:00:22;;;;;;;11.93;5.90;;;;;;;17.45;79.69;102036.94;4994965;28;20493;-86
2022/07/22 05:02:47;;;;;;;12.10;6.40;;;;;;;17.49;79.88;102033.38;4996544;28;20036;-87
2022/07/22 05:05:13;;;;;;;10.65;6.13;;;;;;;17.49;79.53;102033.38;4995290;28;20034;-86
2022/07/22 05:07:38;;;;;;;12.10;6.45;;;;;;;17.57;79.25;102040.50;4995558;28;20030;-87
2022/07/22 05:10:04;;;;;;;12.00;6.03;;;;;;;17.59;79.60;102044.06;4995056;28;20050;-87
2022/07/22 05:12:30;;;;;;;13.15;6.30;;;;;;;17.57;79.63;102040.50;4996574;28;20022;-87
2022/07/22 05:14:55;;;;;;;15.70;7.00;;;;;;;17.62;79.78;102039.63;4995850;28;20347;-87
2022/07/22 05:17:20;;;;;;;17.20;6.60;;;;;;;17.57;79.23;102024.47;4995507;28;20113;-86
2022/07/22 05:19:46;;;;;;;15.50;6.55;;;;;;;17.68;78.81;102041.38;4995684;28;20026;-87
2022/07/22 05:22:11;;;;;;;18.48;6.85;;;;;;;17.71;78.85;102036.94;4995893;28;20058;-87
2022/07/22 05:24:36;;;;;;;11.85;6.93;;;;;;;17.69;79.48;102027.16;4995278;28;20446;-87
2022/07/22 05:27:02;;;;;;;15.77;7.47;;;;;;;17.77;79.30;102031.66;4995224;28;20121;-85
2022/07/22 05:29:28;;;;;;;13.43;6.68;;;;;;;17.69;79.17;102029.84;4995462;28;20030;-85
2022/07/22 05:31:53;;;;;;;16.65;7.07;;;;;;;17.80;79.26;102043.22;4995575;28;20106;-86
2022/07/22 05:34:19;;;;;;;16.77;6.68;;;;;;;17.83;79.33;102044.13;4995318;28;20061;-85
2022/07/22 05:36:44;;;;;;;15.18;6.93;;;;;;;17.84;79.32;102036.97;4995408;28;20105;-85
2022/07/22 05:39:10;;;;;;;16.10;7.05;;;;;;;17.87;79.07;102024.50;4995360;28;20109;-85
2022/07/22 05:41:35;;;;;;;17.77;7.25;;;;;;;17.98;78.92;102040.53;4995204;28;20035;-85
2022/07/22 05:44:01;;;;;;;15.88;7.20;;;;;;;17.98;79.35;102032.50;4994877;28;20054;-85
2022/07/22 05:46:26;;;;;;;12.10;6.20;;;;;;;17.93;79.02;102045.88;4995424;28;20362;-86
2022/07/22 05:48:51;;;;;;;13.20;5.70;;;;;;;17.88;79.24;102038.78;4994984;28;20053;-85
2022/07/22 05:51:17;;;;;;;15.55;5.97;;;;;;;17.99;79.50;102047.69;4993980;28;20367;-85
2022/07/22 05:53:43;;;;;;;14.52;5.85;;;;;;;17.98;79.06;102045.88;4995023;28;20062;-86
2022/07/22 05:56:10;;;;;;;17.33;6.05;;;;;;;17.93;78.84;102048.56;4993945;28;20031;-85
2022/07/22 05:58:37;;;;;;;14.35;5.38;;;;;;;18.09;79.48;102045.88;4993690;28;20028;-85
2022/07/22 06:01:02;;;;;;;9.57;4.60;;;;;;;18.31;77.67;102057.44;4977322;28;20088;-86
2022/07/22 06:03:27;;;;;;;12.43;5.32;;;;;;;18.36;77.46;102045.81;4995013;28;20467;-85
2022/07/22 06:05:53;;;;;;;13.73;5.57;;;;;;;18.26;76.92;102025.34;4994570;28;20033;-85
2022/07/22 06:08:18;;;;;;;14.00;5.65;;;;;;;18.32;77.89;102048.50;4993962;28;20475;-85
2022/07/22 06:10:43;;;;;;;12.63;4.95;;;;;;;18.27;76.78;102028.00;4994708;28;20354;-85
2022/07/22 06:13:09;;;;;;;9.50;4.68;;;;;;;18.43;76.98;102046.72;4994678;28;20065;-85
2022/07/22 06:15:34;;;;;;;11.82;4.95;;;;;;;18.48;76.06;102050.28;4993334;28;20040;-85
2022/07/22 06:18:00;;;;;;;11.82;4.72;;;;;;;18.55;76.17;102048.47;4993794;28;20481;-85
2022/07/22 06:20:25;;;;;;;14.50;5.72;;;;;;;18.49;75.92;102027.94;4994991;28;20046;-85
2022/07/22 06:22:51;;;;;;;13.07;5.45;;;;;;;18.66;75.58;102052.00;4994314;28;20414;-85
2022/07/22 06:25:16;;;;;;;12.10;5.28;;;;;;;18.70;74.57;102054.69;4994804;28;20026;-85
2022/07/22 06:27:41;;;;;;;11.98;5.70;;;;;;;18.66;75.32;102052.00;4992871;28;20034;-85
2022/07/22 06:30:08;;;;;;;13.48;5.97;;;;;;;18.77;74.54;102044.84;4993201;28;20085;-85
2022/07/22 06:32:33;;;;;;;12.75;5.75;;;;;;;18.95;75.93;102050.13;4993165;28;20122;-85
2022/07/22 06:34:59;;;;;;;14.95;5.57;;;;;;;18.94;73.86;102043.00;4976994;28;20129;-86
2022/07/22 06:37:24;;;;;;;11.80;5.82;;;;;;;19.08;73.62;102042.91;4994326;28;20031;-85
2022/07/22 06:39:49;;;;;;;10.45;4.95;;;;;;;19.08;72.74;102042.91;4992772;28;20521;-85
2022/07/22 06:42:15;;;;;;;16.05;5.00;;;;;;;19.30;71.39;102046.38;4994300;28;20069;-85
2022/07/22 06:44:40;;;;;;;11.95;4.80;;;;;;;19.48;70.17;102045.34;4992315;28;20050;-86
2022/07/22 06:47:05;;;;;;;12.90;4.75;;;;;;;19.60;70.57;102049.75;4994060;28;20033;-86
2022/07/22 06:49:31;;;;;;;12.88;5.18;;;;;;;19.76;71.00;102046.97;4992408;28;20376;-87
2022/07/22 06:51:56;;;;;;;12.63;4.47;;;;;;;20.00;71.92;102045.88;4994244;28;20036;-85
2022/07/22 06:54:22;;;;;;;11.77;3.92;;;;;;;20.24;69.44;102044.72;4993587;28;20478;-85
2022/07/22 06:56:47;;;;;;;10.93;3.35;;;;;;;20.55;65.98;102035.47;4993851;28;20061;-85
2022/07/22 06:59:13;;;;;;;11.90;3.63;;;;;;;20.84;65.76;102037.81;4992536;28;20122;-85
2022/07/22 07:01:38;;;;;;;13.82;4.43;;;;;;;21.04;65.81;102043.84;4993847;28;20026;-86
2022/07/22 07:04:04;;;;;;;8.35;3.22;;;;;;;21.22;63.17;102045.38;4993674;28;20034;-86
2022/07/22 07:06:29;;;;;;;7.18;3.20;;;;;;;21.37;63.36;102047.88;4993493;28;20022;-88
2022/07/22 07:08:57;;;;;;;9.88;3.17;;;;;;;21.26;62.59;102030.97;4993823;28;20085;-85
2022/07/22 07:11:23;;;;;;;9.63;3.40;;;;;;;21.47;62.14;102033.38;4994174;28;20045;-86
2022/07/22 07:13:48;;;;;;;8.50;3.13;;;;;;;21.63;63.30;102036.72;4993431;28;20164;-89
2022/07/22 07:16:14;;;;;;;8.80;3.00;;;;;;;21.73;61.00;102030.25;4993757;28;20081;-87
2022/07/22 07:18:39;;;;;;;9.70;3.60;;;;;;;21.99;61.81;102037.00;4992571;28;20030;-86
2022/07/22 07:21:05;;;;;;;8.60;3.20;;;;;;;22.04;60.97;102032.41;4992144;28;20034;-86
2022/07/22 07:23:30;;;;;;;7.82;3.42;;;;;;;21.86;60.88;102014.78;4977320;28;20073;-86
2022/07/22 07:25:56;;;;;;;12.43;3.60;;;;;;;22.02;61.81;102022.63;4992620;28;20470;-86
2022/07/22 07:28:21;;;;;;;6.15;2.97;;;;;;;21.83;59.04;102013.94;4992251;28;20057;-85
2022/07/22 07:30:48;;;;;;;13.32;3.00;;;;;;;21.67;59.82;102018.69;4976094;28;20034;-85
2022/07/22 07:33:13;;;;;;;10.25;3.30;;;;;;;21.62;61.21;102026.84;4993620;28;20458;-86
2022/07/22 07:35:39;;;;;;;11.77;2.72;;;;;;;21.44;59.30;102028.03;4992147;28;20101;-86
2022/07/22 07:38:04;;;;;;;8.70;2.90;;;;;;;21.25;59.62;102029.19;4993962;28;20029;-83
2022/07/22 07:40:30;;;;;;;7.70;3.00;;;;;;;21.14;61.45;102029.34;4993568;28;20160;-89
2022/07/22 07:42:55;;;;;;;7.20;2.85;;;;;;;21.01;60.37;102014.31;4996733;28;20155;-86
2022/07/22 07:45:20;;;;;;;7.22;2.40;;;;;;;21.04;60.86;102033.09;4979895;28;20060;-85
2022/07/22 07:47:46;;;;;;;6.55;2.28;;;;;;;20.98;59.96;102019.72;4997209;28;20026;-86
2022/07/22 07:50:11;;;;;;;5.68;2.08;;;;;;;20.86;58.96;102015.41;4997179;28;20371;-86
2022/07/22 07:52:42;;;;;;;7.80;2.53;;;;;;;20.83;61.65;102017.25;4979891;28;20030;-88
2022/07/22 07:55:08;;;;;;;6.00;2.60;;;;;;;20.83;62.02;102010.06;4996374;28;20085;-85
2022/07/22 07:57:35;;;;;;;6.53;2.90;;;;;;;20.78;60.85;101994.94;4997336;28;20419;-86
2022/07/22 08:00:02;;;;;;;7.03;3.33;;;;;;;21.12;59.95;102028.50;4996884;28;20030;-86
2022/07/22 08:02:27;;;;;;;9.07;3.35;;;;;;;21.46;59.38;102031.59;4996559;28;20030;-85
2022/07/22 08:04:53;;;;;;;7.25;3.00;;;;;;;21.60;57.92;102027.81;4995547;28;20386;-86
2022/07/22 08:07:18;;;;;;;5.45;2.60;;;;;;;21.67;57.93;102021.38;4996030;28;20211;-84
2022/07/22 08:09:43;;;;;;;5.55;2.30;;;;;;;21.60;56.45;102020.63;4996752;28;20026;-84
2022/07/22 08:12:09;;;;;;;6.75;3.03;;;;;;;21.62;56.60;102028.66;4995483;28;20026;-86
2022/07/22 08:14:34;;;;;;;6.88;3.40;;;;;;;21.43;55.72;102015.50;4996671;28;20058;-85
2022/07/22 08:17:00;;;;;;;6.32;3.60;;;;;;;21.42;55.75;102011.03;4996319;28;20121;-85
2022/07/22 08:19:26;;;;;;;5.78;2.97;;;;;;;21.33;55.36;102013.88;4996653;28;20058;-85
2022/07/22 08:21:51;;;;;;;5.35;3.20;;;;;;;21.33;57.86;102008.50;4996994;28;20026;-85
2022/07/22 08:24:16;;;;;;;7.88;3.20;;;;;;;21.44;55.64;102022.66;4979160;28;20026;-85
2022/07/22 08:26:42;;;;;;;7.38;3.40;;;;;;;21.40;56.17;102023.59;4995321;28;20441;-85
2022/07/22 08:29:09;;;;;;;6.10;3.33;;;;;;;21.42;55.84;102021.81;4996558;28;20371;-85
2022/07/22 08:31:36;;;;;;;6.43;3.20;;;;;;;21.41;55.38;102017.34;4996525;28;20077;-84
2022/07/22 08:34:03;;;;;;;6.85;3.15;;;;;;;21.49;56.16;102020.78;4996448;28;20034;-84
2022/07/22 08:36:29;;;;;;;5.78;3.10;;;;;;;21.45;55.59;102024.41;4996102;28;20192;-84
2022/07/22 08:38:55;;;;;;;5.28;3.15;;;;;;;21.42;56.20;102024.50;4996415;28;20486;-84
2022/07/22 08:41:22;;;;;;;7.90;3.58;;;;;;;21.41;57.68;101998.53;4996062;28;20037;-84
2022/07/22 08:43:48;;;;;;;7.45;3.28;;;;;;;21.41;57.27;101995.84;4994691;28;20054;-84
2022/07/22 08:46:14;;;;;;;7.57;3.50;;;;;;;21.58;57.52;102002.72;4994660;28;20172;-84
2022/07/22 08:48:39;;;;;;;8.00;3.30;;;;;;;21.58;55.70;102006.28;4995064;28;20030;-83
2022/07/22 08:51:06;;;;;;;6.80;3.20;;;;;;;21.62;54.79;101999.06;4994672;28;20080;-83
2022/07/22 08:53:32;;;;;;;10.10;3.20;;;;;;;21.81;55.04;102008.63;4977861;28;20034;-83
2022/07/22 08:55:58;;;;;;;7.97;3.10;;;;;;;21.90;53.23;102010.25;4995906;28;20038;-83
2022/07/22 08:58:25;;;;;;;6.97;3.03;;;;;;;21.97;51.81;102002.03;4995005;28;20034;-86
2022/07/22 09:01:11;;;;;;;7.65;3.20;;;;;;;22.10;54.57;101996.41;4996177;28;20151;-86
2022/07/22 09:03:49;;;;;;;6.43;3.30;;;;;;;22.03;52.93;102009.13;4996460;28;20105;-85
2022/07/22 09:06:18;;;;;;;6.32;3.20;;;;;;;21.90;51.60;102012.94;4995938;28;20030;-86
2022/07/22 09:08:59;;;;;;;7.53;3.22;;;;;;;22.19;52.76;102007.06;4994563;28;20490;-87
2022/07/22 09:11:28;;;;;;;7.82;3.53;;;;;;;22.49;53.91;102002.88;4996016;28;20030;-85
2022/07/22 09:13:55;;;;;;;7.25;3.25;;;;;;;22.76;53.03;102004.09;4995614;28;20050;-85
2022/07/22 09:16:42;;;;;;;7.53;3.53;;;;;;;23.29;54.38;102014.63;4995433;28;20485;-85
2022/07/22 09:19:08;;;;;;;7.32;3.33;;;;;;;23.48;51.16;102002.50;4994367;28;20026;-84
2022/07/22 09:21:38;;;;;;;7.63;3.50;;;;;;;23.57;50.54;101998.69;4995497;28;20036;-85
2022/07/22 09:24:05;;;;;;;8.68;3.22;;;;;;;23.47;49.87;102000.72;4995485;28;20042;-84
2022/07/22 09:26:34;;;;;;;6.38;3.20;;;;;;;23.46;52.33;101988.13;4995553;28;20053;-85
2022/07/22 09:29:01;;;;;;;6.28;3.00;;;;;;;23.43;52.50;102005.31;4994282;28;20383;-85
2022/07/22 09:31:30;;;;;;;6.60;3.45;;;;;;;23.29;50.42;101991.25;4996408;28;20124;-85
2022/07/22 09:33:56;;;;;;;6.07;3.28;;;;;;;23.22;50.70;101995.03;4995671;28;20026;-85
2022/07/22 09:36:22;;;;;;;7.63;3.58;;;;;;;23.12;49.71;101990.75;4994043;28;20169;-84
2022/07/22 09:38:48;;;;;;;7.78;3.40;;;;;;;23.08;48.19;101991.75;4995556;28;20489;-85
2022/07/22 09:41:13;;;;;;;7.05;3.35;;;;;;;22.95;49.24;101988.44;4995455;28;20525;-82
2022/07/22 09:43:39;;;;;;;12.48;3.63;;;;;;;23.04;50.39;101985.56;4994903;28;20390;-84
2022/07/22 09:46:05;;;;;;;6.90;3.22;;;;;;;23.11;51.00;101975.50;4993756;28;20100;-85
2022/07/22 09:48:31;;;;;;;8.20;3.40;;;;;;;23.10;51.36;101973.72;4995026;28;20374;-84
2022/07/22 09:50:58;;;;;;;6.50;3.40;;;;;;;23.34;51.20;101974.94;4994981;28;20030;-85
2022/07/22 09:53:27;;;;;;;6.25;3.25;;;;;;;23.67;51.48;101966.03;4995346;28;20412;-84
2022/07/22 09:55:53;;;;;;;8.27;3.38;;;;;;;24.33;49.82;101972.34;4993552;28;20478;-84
2022/07/22 09:58:19;;;;;;;7.57;3.10;;;;;;;24.45;46.88;101966.66;4994926;28;20085;-87
2022/07/22 10:00:44;;;;;;;6.60;3.30;;;;;;;24.96;47.67;101965.97;4993453;28;20032;-84
2022/07/22 10:03:33;;;;;;;7.43;3.40;;;;;;;25.23;46.48;101966.97;4994569;28;20459;-83
2022/07/22 10:06:00;;;;;;;7.38;3.40;;;;;;;25.26;43.97;101974.06;4994585;28;20105;-85
2022/07/22 10:08:27;;;;;;;5.38;2.78;;;;;;;25.08;41.12;101966.53;4995081;28;20027;-84
2022/07/22 10:10:57;;;;;;;7.40;2.72;;;;;;;24.83;41.39;101978.09;4996266;28;20092;-87
2022/07/22 10:13:23;;;;;;;7.25;3.05;;;;;;;24.63;42.28;101959.81;4994967;28;20026;-86
2022/07/22 10:15:49;;;;;;;6.10;2.92;;;;;;;24.38;42.91;101972.25;4994706;28;20037;-87
2022/07/22 10:18:17;;;;;;;12.52;3.30;;;;;;;24.50;44.64;101980.00;4995054;28;20104;-86
2022/07/22 10:20:43;;;;;;;8.25;2.78;;;;;;;24.44;45.62;101970.25;4994951;28;20049;-89
2022/07/22 10:23:10;;;;;;;6.40;3.00;;;;;;;24.58;44.38;101968.94;4995041;28;20026;-87
2022/07/22 10:25:58;;;;;;;7.38;3.30;;;;;;;24.57;45.70;101978.00;4994759;28;20026;-86
2022/07/22 10:31:49;;;;;;;6.28;2.97;;;;;;;24.63;45.91;101981.41;4994466;28;20029;-86
2022/07/22 10:34:15;;;;;;;6.80;3.10;;;;;;;24.61;44.88;101976.97;4994840;28;20505;-86
2022/07/22 10:36:42;;;;;;;8.40;3.30;;;;;;;24.52;46.47;101980.84;4994070;28;20085;-86
2022/07/22 10:39:10;;;;;;;6.10;3.28;;;;;;;24.50;43.86;101969.22;4994045;28;20018;-85
2022/07/22 10:41:38;;;;;;;6.80;3.00;;;;;;;24.40;46.57;101963.16;4993890;28;20026;-86
2022/07/22 10:44:04;;;;;;;7.82;2.95;;;;;;;24.43;45.51;101979.28;4994024;28;20046;-86
2022/07/22 10:46:50;;;;;;;9.30;3.10;;;;;;;24.18;46.47;101960.16;4994347;28;20038;-86
2022/07/22 10:49:17;;;;;;;5.93;3.30;;;;;;;24.34;47.23;101951.63;4993114;28;20462;-85
2022/07/22 10:52:07;;;;;;;6.70;3.08;;;;;;;24.92;46.20;101971.53;4994370;28;20037;-87
2022/07/22 10:54:33;;;;;;;7.38;3.50;;;;;;;25.34;42.67;101957.59;4992728;28;20065;-85
2022/07/22 10:57:00;;;;;;;7.32;3.40;;;;;;;25.67;41.29;101967.28;4993920;28;20410;-85
2022/07/22 10:59:26;;;;;;;6.00;3.40;;;;;;;26.24;39.90;101951.72;4994062;28;20034;-86
2022/07/22 11:01:54;;;;;;;6.22;3.08;;;;;;;26.57;43.88;101935.19;4994328;28;20027;-86
2022/07/22 11:04:21;;;;;;;9.65;2.80;;;;;;;26.80;43.06;101955.97;4993786;28;20026;-86
2022/07/22 11:06:49;;;;;;;4.93;3.03;;;;;;;26.63;40.81;101937.63;4992968;28;20022;-85
2022/07/22 11:09:16;;;;;;;5.85;3.00;;;;;;;26.49;39.42;101945.44;4994310;28;20038;-85
2022/07/22 11:11:53;;;;;;;8.40;3.03;;;;;;;26.20;40.59;101925.69;4992827;28;20030;-85
2022/07/22 11:14:20;;;;;;;5.25;3.10;;;;;;;26.38;40.67;101940.38;4993792;28;20443;-86
2022/07/22 11:16:49;;;;;;;7.32;3.03;;;;;;;26.10;40.38;101924.28;4993311;28;20520;-86
2022/07/22 11:19:14;;;;;;;6.25;3.33;;;;;;;26.33;41.60;101934.25;4994076;28;20466;-85
2022/07/22 11:21:40;;;;;;;8.38;3.25;;;;;;;26.35;43.14;101938.69;4993550;28;20031;-86